sensor_id;sensor_type;location;lat;lon;timestamp;pressure;altitude;pressure_sealevel;temperature;humidity
21779;BME280;11050;52.222;20.916;2023-03-01T00:01:29;101502.72;;;-1.08;100.00
21779;BME280;11050;52.222;20.916;2023-03-01T00:03:56;101498.84;;;-1.05;100.00
21779;BME280;11050;52.222;20.916;2023-03-01T00:06:23;101493.16;;;-1.02;100.00
21779;BME280;11050;52.222;20.916;2023-03-01T00:08:50;101490.16;;;-0.99;100.00
21779;BME280;11050;52.222;20.916;2023-03-01T00:11:23;101481.69;;;-1.04;100.00
21779;BME280;11050;52.222;20.916;2023-03-01T00:13:52;101498.56;;;-1.02;100.00
21779;BME280;11050;52.222;20.916;2023-03-01T00:16:23;101491.47;;;-1.03;100.00
21779;BME280;11050;52.222;20.916;2023-03-01T00:18:49;101489.47;;;-1.01;100.00
21779;BME280;11050;52.222;20.916;2023-03-01T00:21:17;101493.44;;;-1.05;100.00
21779;BME280;11050;52.222;20.916;2023-03-01T00:23:43;101487.78;;;-1.02;100.00
21779;BME280;11050;52.222;20.916;2023-03-01T00:26:12;101483.69;;;-1.06;100.00
21779;BME280;11050;52.222;20.916;2023-03-01T00:28:38;101482.66;;;-1.05;100.00
21779;BME280;11050;52.222;20.916;2023-03-01T00:31:15;101479.25;;;-1.07;100.00
21779;BME280;11050;52.222;20.916;2023-03-01T00:33:42;101473.31;;;-1.11;100.00
21779;BME280;11050;52.222;20.916;2023-03-01T00:36:12;101475.63;;;-1.16;100.00
21779;BME280;11050;52.222;20.916;2023-03-01T00:38:45;101469.22;;;-1.15;100.00
21779;BME280;11050;52.222;20.916;2023-03-01T00:41:15;101481.88;;;-1.15;100.00
21779;BME280;11050;52.222;20.916;2023-03-01T00:43:41;101482.16;;;-1.18;100.00
21779;BME280;11050;52.222;20.916;2023-03-01T00:46:12;101479.78;;;-1.21;100.00
21779;BME280;11050;52.222;20.916;2023-03-01T00:48:39;101482.88;;;-1.16;100.00
21779;BME280;11050;52.222;20.916;2023-03-01T00:51:15;101466.69;;;-1.16;100.00
21779;BME280;11050;52.222;20.916;2023-03-01T00:53:42;101470.69;;;-1.20;100.00
21779;BME280;11050;52.222;20.916;2023-03-01T00:56:10;101474.63;;;-1.15;100.00
21779;BME280;11050;52.222;20.916;2023-03-01T00:58:37;101479.19;;;-1.15;100.00
21779;BME280;11050;52.222;20.916;2023-03-01T01:01:30;101481.03;;;-1.16;100.00
21779;BME280;11050;52.222;20.916;2023-03-01T01:03:58;101463.00;;;-1.15;100.00
21779;BME280;11050;52.222;20.916;2023-03-01T01:06:32;101459.75;;;-1.19;100.00
21779;BME280;11050;52.222;20.916;2023-03-01T01:08:58;101459.75;;;-1.19;100.00
21779;BME280;11050;52.222;20.916;2023-03-01T01:11:27;101451.81;;;-1.20;100.00
21779;BME280;11050;52.222;20.916;2023-03-01T01:13:54;101452.22;;;-1.15;100.00
21779;BME280;11050;52.222;20.916;2023-03-01T01:16:24;101442.09;;;-1.13;100.00
21779;BME280;11050;52.222;20.916;2023-03-01T01:18:50;101442.25;;;-1.15;100.00
21779;BME280;11050;52.222;20.916;2023-03-01T01:21:20;101439.41;;;-1.13;100.00
21779;BME280;11050;52.222;20.916;2023-03-01T01:23:47;101452.59;;;-1.10;100.00
21779;BME280;11050;52.222;20.916;2023-03-01T01:26:19;101443.97;;;-1.14;100.00
21779;BME280;11050;52.222;20.916;2023-03-01T01:28:47;101434.16;;;-1.15;100.00
21779;BME280;11050;52.222;20.916;2023-03-01T01:31:13;101431.94;;;-1.19;100.00
21779;BME280;11050;52.222;20.916;2023-03-01T01:33:39;101429.25;;;-1.19;100.00
21779;BME280;11050;52.222;20.916;2023-03-01T01:36:07;101436.31;;;-1.18;100.00
21779;BME280;11050;52.222;20.916;2023-03-01T01:38:36;101425.69;;;-1.20;100.00
21779;BME280;11050;52.222;20.916;2023-03-01T01:41:03;101427.53;;;-1.20;100.00
21779;BME280;11050;52.222;20.916;2023-03-01T01:43:40;101420.03;;;-1.26;100.00
21779;BME280;11050;52.222;20.916;2023-03-01T01:46:21;101430.94;;;-1.18;100.00
21779;BME280;11050;52.222;20.916;2023-03-01T01:49:17;101428.84;;;-1.24;100.00
21779;BME280;11050;52.222;20.916;2023-03-01T01:51:48;101413.13;;;-1.29;100.00
21779;BME280;11050;52.222;20.916;2023-03-01T01:54:25;101418.03;;;-1.24;100.00
21779;BME280;11050;52.222;20.916;2023-03-01T01:57:00;101409.56;;;-1.29;100.00
21779;BME280;11050;52.222;20.916;2023-03-01T01:59:30;101415.50;;;-1.26;100.00
21779;BME280;11050;52.222;20.916;2023-03-01T02:02:00;101405.31;;;-1.32;100.00
21779;BME280;11050;52.222;20.916;2023-03-01T02:04:29;101404.88;;;-1.27;100.00
21779;BME280;11050;52.222;20.916;2023-03-01T02:07:19;101406.56;;;-1.26;100.00
21779;BME280;11050;52.222;20.916;2023-03-01T02:09:48;101411.13;;;-1.27;100.00
21779;BME280;11050;52.222;20.916;2023-03-01T02:12:19;101408.00;;;-1.32;100.00
21779;BME280;11050;52.222;20.916;2023-03-01T02:14:46;101411.56;;;-1.31;100.00
21779;BME280;11050;52.222;20.916;2023-03-01T02:17:15;101407.88;;;-1.30;100.00
21779;BME280;11050;52.222;20.916;2023-03-01T02:22:39;101409.88;;;-1.32;100.00
21779;BME280;11050;52.222;20.916;2023-03-01T02:28:04;101411.34;;;-1.38;100.00
21779;BME280;11050;52.222;20.916;2023-03-01T02:30:33;101405.78;;;-1.36;100.00
21779;BME280;11050;52.222;20.916;2023-03-01T02:33:02;101394.31;;;-1.38;100.00
21779;BME280;11050;52.222;20.916;2023-03-01T02:36:07;101395.28;;;-1.39;100.00
21779;BME280;11050;52.222;20.916;2023-03-01T02:38:34;101382.13;;;-1.42;100.00
21779;BME280;11050;52.222;20.916;2023-03-01T02:41:02;101395.97;;;-1.37;100.00
21779;BME280;11050;52.222;20.916;2023-03-01T02:43:32;101391.59;;;-1.38;100.00
21779;BME280;11050;52.222;20.916;2023-03-01T02:46:05;101390.22;;;-1.42;100.00
21779;BME280;11050;52.222;20.916;2023-03-01T02:49:00;101387.34;;;-1.41;100.00
21779;BME280;11050;52.222;20.916;2023-03-01T02:55:11;101390.66;;;-1.47;100.00
21779;BME280;11050;52.222;20.916;2023-03-01T02:57:40;101398.59;;;-1.45;100.00
21779;BME280;11050;52.222;20.916;2023-03-01T03:00:12;101397.44;;;-1.43;100.00
21779;BME280;11050;52.222;20.916;2023-03-01T03:02:50;101384.66;;;-1.41;100.00
21779;BME280;11050;52.222;20.916;2023-03-01T03:07:48;101370.25;;;-1.49;100.00
21779;BME280;11050;52.222;20.916;2023-03-01T03:10:27;101378.19;;;-1.48;100.00
21779;BME280;11050;52.222;20.916;2023-03-01T03:12:57;101368.53;;;-1.50;100.00
21779;BME280;11050;52.222;20.916;2023-03-01T03:15:24;101361.69;;;-1.45;100.00
21779;BME280;11050;52.222;20.916;2023-03-01T03:17:51;101365.25;;;-1.44;100.00
21779;BME280;11050;52.222;20.916;2023-03-01T03:20:20;101363.69;;;-1.47;100.00
21779;BME280;11050;52.222;20.916;2023-03-01T03:22:50;101356.47;;;-1.46;100.00
21779;BME280;11050;52.222;20.916;2023-03-01T03:25:18;101358.84;;;-1.43;100.00
21779;BME280;11050;52.222;20.916;2023-03-01T03:27:46;101349.63;;;-1.41;100.00
21779;BME280;11050;52.222;20.916;2023-03-01T03:30:18;101343.25;;;-1.40;100.00
21779;BME280;11050;52.222;20.916;2023-03-01T03:32:47;101344.06;;;-1.39;100.00
21779;BME280;11050;52.222;20.916;2023-03-01T03:35:45;101334.59;;;-1.43;100.00
21779;BME280;11050;52.222;20.916;2023-03-01T03:38:14;101350.63;;;-1.42;100.00
21779;BME280;11050;52.222;20.916;2023-03-01T03:41:07;101332.91;;;-1.44;100.00
21779;BME280;11050;52.222;20.916;2023-03-01T03:43:36;101340.84;;;-1.43;100.00
21779;BME280;11050;52.222;20.916;2023-03-01T03:46:04;101337.59;;;-1.46;100.00
21779;BME280;11050;52.222;20.916;2023-03-01T03:48:42;101354.16;;;-1.41;100.00
21779;BME280;11050;52.222;20.916;2023-03-01T03:51:15;101357.41;;;-1.38;100.00
21779;BME280;11050;52.222;20.916;2023-03-01T03:53:42;101353.72;;;-1.37;100.00
21779;BME280;11050;52.222;20.916;2023-03-01T03:56:08;101341.16;;;-1.28;100.00
21779;BME280;11050;52.222;20.916;2023-03-01T03:58:34;101329.81;;;-1.32;100.00
21779;BME280;11050;52.222;20.916;2023-03-01T04:01:00;101332.25;;;-1.29;100.00
21779;BME280;11050;52.222;20.916;2023-03-01T04:03:28;101332.78;;;-1.25;100.00
21779;BME280;11050;52.222;20.916;2023-03-01T04:05:57;101329.22;;;-1.26;100.00
21779;BME280;11050;52.222;20.916;2023-03-01T04:08:23;101319.38;;;-1.35;100.00
21779;BME280;11050;52.222;20.916;2023-03-01T04:10:55;101311.72;;;-1.39;100.00
21779;BME280;11050;52.222;20.916;2023-03-01T04:13:22;101323.63;;;-1.32;100.00
21779;BME280;11050;52.222;20.916;2023-03-01T04:15:52;101318.91;;;-1.30;100.00
21779;BME280;11050;52.222;20.916;2023-03-01T04:18:21;101324.97;;;-1.28;100.00
21779;BME280;11050;52.222;20.916;2023-03-01T04:20:48;101328.25;;;-1.25;100.00
21779;BME280;11050;52.222;20.916;2023-03-01T04:23:18;101321.13;;;-1.26;100.00
21779;BME280;11050;52.222;20.916;2023-03-01T04:25:58;101324.38;;;-1.22;100.00
21779;BME280;11050;52.222;20.916;2023-03-01T04:28:50;101336.16;;;-1.23;100.00
21779;BME280;11050;52.222;20.916;2023-03-01T04:31:18;101329.75;;;-1.22;100.00
21779;BME280;11050;52.222;20.916;2023-03-01T04:36:18;101318.06;;;-1.31;100.00
21779;BME280;11050;52.222;20.916;2023-03-01T04:38:45;101314.19;;;-1.28;100.00
21779;BME280;11050;52.222;20.916;2023-03-01T04:41:17;101310.13;;;-1.32;100.00
21779;BME280;11050;52.222;20.916;2023-03-01T04:43:43;101315.53;;;-1.32;100.00
21779;BME280;11050;52.222;20.916;2023-03-01T04:46:13;101307.28;;;-1.31;100.00
21779;BME280;11050;52.222;20.916;2023-03-01T04:48:42;101307.97;;;-1.29;100.00
21779;BME280;11050;52.222;20.916;2023-03-01T04:51:08;101315.03;;;-1.28;100.00
21779;BME280;11050;52.222;20.916;2023-03-01T04:53:35;101303.41;;;-1.28;100.00
21779;BME280;11050;52.222;20.916;2023-03-01T04:56:05;101300.88;;;-1.30;100.00
21779;BME280;11050;52.222;20.916;2023-03-01T04:58:31;101298.88;;;-1.28;100.00
21779;BME280;11050;52.222;20.916;2023-03-01T05:00:56;101288.78;;;-1.26;100.00
21779;BME280;11050;52.222;20.916;2023-03-01T05:03:22;101291.78;;;-1.29;100.00
21779;BME280;11050;52.222;20.916;2023-03-01T05:05:51;101290.63;;;-1.26;100.00
21779;BME280;11050;52.222;20.916;2023-03-01T05:08:18;101291.47;;;-1.26;100.00
21779;BME280;11050;52.222;20.916;2023-03-01T05:10:52;101290.09;;;-1.30;100.00
21779;BME280;11050;52.222;20.916;2023-03-01T05:13:20;101291.97;;;-1.30;100.00
21779;BME280;11050;52.222;20.916;2023-03-01T05:15:56;101296.88;;;-1.26;100.00
21779;BME280;11050;52.222;20.916;2023-03-01T05:18:24;101301.72;;;-1.29;100.00
21779;BME280;11050;52.222;20.916;2023-03-01T05:21:05;101298.88;;;-1.28;100.00
21779;BME280;11050;52.222;20.916;2023-03-01T05:23:32;101300.88;;;-1.30;100.00
21779;BME280;11050;52.222;20.916;2023-03-01T05:26:00;101302.03;;;-1.32;100.00
21779;BME280;11050;52.222;20.916;2023-03-01T05:28:27;101300.88;;;-1.30;100.00
21779;BME280;11050;52.222;20.916;2023-03-01T05:30:57;101312.06;;;-1.25;100.00
21779;BME280;11050;52.222;20.916;2023-03-01T05:33:24;101318.81;;;-1.21;100.00
21779;BME280;11050;52.222;20.916;2023-03-01T05:35:51;101315.28;;;-1.21;100.00
21779;BME280;11050;52.222;20.916;2023-03-01T05:38:18;101324.28;;;-1.13;100.00
21779;BME280;11050;52.222;20.916;2023-03-01T05:40:46;101326.53;;;-1.08;100.00
21779;BME280;11050;52.222;20.916;2023-03-01T05:43:14;101333.63;;;-1.07;100.00
21779;BME280;11050;52.222;20.916;2023-03-01T05:45:41;101341.56;;;-1.06;100.00
21779;BME280;11050;52.222;20.916;2023-03-01T05:48:08;101341.09;;;-1.01;100.00
21779;BME280;11050;52.222;20.916;2023-03-01T05:50:42;101342.94;;;-1.02;100.00
21779;BME280;11050;52.222;20.916;2023-03-01T05:53:15;101343.19;;;-0.95;100.00
21779;BME280;11050;52.222;20.916;2023-03-01T05:55:42;101340.00;;;-0.90;100.00
21779;BME280;11050;52.222;20.916;2023-03-01T05:58:13;101349.28;;;-0.93;100.00
21779;BME280;11050;52.222;20.916;2023-03-01T06:00:44;101347.97;;;-0.89;100.00
21779;BME280;11050;52.222;20.916;2023-03-01T06:03:13;101334.84;;;-0.84;100.00
21779;BME280;11050;52.222;20.916;2023-03-01T06:05:40;101332.84;;;-0.82;100.00
21779;BME280;11050;52.222;20.916;2023-03-01T06:08:06;101342.41;;;-0.70;100.00
21779;BME280;11050;52.222;20.916;2023-03-01T06:10:32;101334.44;;;-0.71;100.00
21779;BME280;11050;52.222;20.916;2023-03-01T06:12:58;101339.75;;;-0.62;100.00
21779;BME280;11050;52.222;20.916;2023-03-01T06:15:25;101336.44;;;-0.56;100.00
21779;BME280;11050;52.222;20.916;2023-03-01T06:17:53;101327.03;;;-0.52;100.00
21779;BME280;11050;52.222;20.916;2023-03-01T06:20:24;101335.03;;;-0.42;100.00
21779;BME280;11050;52.222;20.916;2023-03-01T06:22:50;101330.69;;;-0.35;100.00
21779;BME280;11050;52.222;20.916;2023-03-01T06:25:23;101331.72;;;-0.28;100.00
21779;BME280;11050;52.222;20.916;2023-03-01T06:27:49;101333.28;;;-0.26;100.00
21779;BME280;11050;52.222;20.916;2023-03-01T06:30:17;101324.84;;;-0.23;100.00
21779;BME280;11050;52.222;20.916;2023-03-01T06:32:43;101334.03;;;-0.16;100.00
21779;BME280;11050;52.222;20.916;2023-03-01T06:35:12;101328.00;;;-0.10;100.00
21779;BME280;11050;52.222;20.916;2023-03-01T06:37:40;101341.53;;;-0.02;100.00
21779;BME280;11050;52.222;20.916;2023-03-01T06:40:07;101339.03;;;0.05;100.00
21779;BME280;11050;52.222;20.916;2023-03-01T06:42:40;101347.50;;;0.10;100.00
21779;BME280;11050;52.222;20.916;2023-03-01T06:45:07;101339.44;;;0.18;100.00
21779;BME280;11050;52.222;20.916;2023-03-01T06:47:33;101341.97;;;0.20;100.00
21779;BME280;11050;52.222;20.916;2023-03-01T06:50:00;101336.56;;;0.20;100.00
21779;BME280;11050;52.222;20.916;2023-03-01T06:52:26;101329.50;;;0.27;100.00
21779;BME280;11050;52.222;20.916;2023-03-01T06:54:52;101342.75;;;0.38;100.00
21779;BME280;11050;52.222;20.916;2023-03-01T06:57:18;101346.09;;;0.40;99.29
21779;BME280;11050;52.222;20.916;2023-03-01T06:59:43;101338.03;;;0.48;99.02
21779;BME280;11050;52.222;20.916;2023-03-01T07:02:11;101342.78;;;0.54;98.66
21779;BME280;11050;52.222;20.916;2023-03-01T07:04:37;101338.25;;;0.62;97.55
21779;BME280;11050;52.222;20.916;2023-03-01T07:07:03;101350.94;;;0.70;98.07
21779;BME280;11050;52.222;20.916;2023-03-01T07:09:29;101344.41;;;0.80;96.92
21779;BME280;11050;52.222;20.916;2023-03-01T07:11:56;101352.16;;;0.83;96.61
21779;BME280;11050;52.222;20.916;2023-03-01T07:14:22;101360.31;;;0.91;95.81
21779;BME280;11050;52.222;20.916;2023-03-01T07:16:50;101344.28;;;0.98;95.07
21779;BME280;11050;52.222;20.916;2023-03-01T07:19:15;101350.19;;;1.02;94.83
21779;BME280;11050;52.222;20.916;2023-03-01T07:21:41;101344.94;;;1.08;94.72
21779;BME280;11050;52.222;20.916;2023-03-01T07:24:08;101342.59;;;1.13;94.01
21779;BME280;11050;52.222;20.916;2023-03-01T07:26:34;101333.13;;;1.09;93.77
21779;BME280;11050;52.222;20.916;2023-03-01T07:29:01;101324.50;;;1.22;93.87
21779;BME280;11050;52.222;20.916;2023-03-01T07:31:27;101329.25;;;1.28;93.49
21779;BME280;11050;52.222;20.916;2023-03-01T07:33:54;101325.00;;;1.25;93.31
21779;BME280;11050;52.222;20.916;2023-03-01T07:36:20;101321.94;;;1.36;92.82
21779;BME280;11050;52.222;20.916;2023-03-01T07:38:46;101310.63;;;1.49;92.30
21779;BME280;11050;52.222;20.916;2023-03-01T07:41:12;101324.50;;;1.54;92.15
21779;BME280;11050;52.222;20.916;2023-03-01T07:43:37;101300.44;;;1.59;91.09
21779;BME280;11050;52.222;20.916;2023-03-01T07:46:04;101309.72;;;1.64;91.39
21779;BME280;11050;52.222;20.916;2023-03-01T07:48:31;101322.59;;;1.78;91.33
21779;BME280;11050;52.222;20.916;2023-03-01T07:51:01;101327.81;;;1.88;90.18
21779;BME280;11050;52.222;20.916;2023-03-01T07:53:27;101334.41;;;1.93;89.98
21779;BME280;11050;52.222;20.916;2023-03-01T07:56:10;101319.31;;;1.99;89.03
21779;BME280;11050;52.222;20.916;2023-03-01T07:58:40;101329.31;;;2.07;88.86
21779;BME280;11050;52.222;20.916;2023-03-01T08:01:09;101325.41;;;2.09;87.58
21779;BME280;11050;52.222;20.916;2023-03-01T08:03:36;101327.91;;;2.19;87.39
21779;BME280;11050;52.222;20.916;2023-03-01T08:06:06;101324.97;;;2.28;88.21
21779;BME280;11050;52.222;20.916;2023-03-01T08:08:34;101322.78;;;2.32;88.34
21779;BME280;11050;52.222;20.916;2023-03-01T08:11:02;101329.84;;;2.49;87.34
21779;BME280;11050;52.222;20.916;2023-03-01T08:13:29;101319.91;;;2.64;87.49
21779;BME280;11050;52.222;20.916;2023-03-01T08:16:05;101322.91;;;2.77;86.09
21779;BME280;11050;52.222;20.916;2023-03-01T08:18:31;101322.81;;;2.85;85.14
21779;BME280;11050;52.222;20.916;2023-03-01T08:21:13;101330.75;;;2.95;84.86
21779;BME280;11050;52.222;20.916;2023-03-01T08:23:40;101328.94;;;3.10;85.33
21779;BME280;11050;52.222;20.916;2023-03-01T08:26:19;101328.03;;;3.17;82.89
21779;BME280;11050;52.222;20.916;2023-03-01T08:28:46;101327.97;;;3.25;82.58
21779;BME280;11050;52.222;20.916;2023-03-01T08:31:34;101322.97;;;3.37;82.41
21779;BME280;11050;52.222;20.916;2023-03-01T08:34:08;101327.00;;;3.63;83.14
21779;BME280;11050;52.222;20.916;2023-03-01T08:36:41;101326.81;;;3.79;80.56
21779;BME280;11050;52.222;20.916;2023-03-01T08:39:10;101322.06;;;3.96;80.55
21779;BME280;11050;52.222;20.916;2023-03-01T08:41:37;101319.44;;;4.17;78.69
21779;BME280;11050;52.222;20.916;2023-03-01T08:44:04;101323.47;;;4.21;78.90
21779;BME280;11050;52.222;20.916;2023-03-01T08:46:34;101321.34;;;4.31;78.76
21779;BME280;11050;52.222;20.916;2023-03-01T08:49:05;101320.38;;;4.39;75.97
21779;BME280;11050;52.222;20.916;2023-03-01T08:51:31;101330.53;;;4.45;76.43
21779;BME280;11050;52.222;20.916;2023-03-01T08:54:07;101322.69;;;4.56;76.17
21779;BME280;11050;52.222;20.916;2023-03-01T08:56:33;101331.22;;;4.68;75.58
21779;BME280;11050;52.222;20.916;2023-03-01T08:58:59;101330.16;;;4.83;75.74
21779;BME280;11050;52.222;20.916;2023-03-01T09:01:25;101327.97;;;4.94;74.77
21779;BME280;11050;52.222;20.916;2023-03-01T09:03:51;101326.94;;;4.95;73.53
21779;BME280;11050;52.222;20.916;2023-03-01T09:06:18;101332.97;;;5.11;73.59
21779;BME280;11050;52.222;20.916;2023-03-01T09:08:47;101329.88;;;5.14;72.65
21779;BME280;11050;52.222;20.916;2023-03-01T09:11:20;101330.78;;;5.21;72.42
21779;BME280;11050;52.222;20.916;2023-03-01T09:13:47;101336.97;;;5.30;72.05
21779;BME280;11050;52.222;20.916;2023-03-01T09:16:16;101328.78;;;5.30;72.68
21779;BME280;11050;52.222;20.916;2023-03-01T09:18:44;101334.75;;;5.40;72.10
21779;BME280;11050;52.222;20.916;2023-03-01T09:21:16;101337.66;;;5.59;71.42
21779;BME280;11050;52.222;20.916;2023-03-01T09:23:45;101329.16;;;5.69;71.06
21779;BME280;11050;52.222;20.916;2023-03-01T09:26:16;101323.41;;;5.85;70.13
21779;BME280;11050;52.222;20.916;2023-03-01T09:28:49;101322.19;;;5.88;69.05
21779;BME280;11050;52.222;20.916;2023-03-01T09:31:17;101322.00;;;5.89;68.26
21779;BME280;11050;52.222;20.916;2023-03-01T09:33:47;101307.25;;;5.84;69.49
21779;BME280;11050;52.222;20.916;2023-03-01T09:36:17;101319.66;;;5.86;69.57
21779;BME280;11050;52.222;20.916;2023-03-01T09:38:44;101324.47;;;5.84;69.41
21779;BME280;11050;52.222;20.916;2023-03-01T09:43:56;101313.16;;;5.87;69.91
21779;BME280;11050;52.222;20.916;2023-03-01T09:46:26;101306.91;;;5.93;69.02
21779;BME280;11050;52.222;20.916;2023-03-01T09:48:57;101306.72;;;5.95;69.49
21779;BME280;11050;52.222;20.916;2023-03-01T09:51:30;101302.47;;;5.92;68.54
21779;BME280;11050;52.222;20.916;2023-03-01T09:53:57;101295.94;;;5.87;69.04
21779;BME280;11050;52.222;20.916;2023-03-01T09:59:32;101295.66;;;6.03;69.37
21779;BME280;11050;52.222;20.916;2023-03-01T10:02:23;101289.41;;;6.09;68.91
21779;BME280;11050;52.222;20.916;2023-03-01T10:07:58;101282.16;;;6.29;69.23
21779;BME280;11050;52.222;20.916;2023-03-01T10:10:38;101279.47;;;6.42;68.68
21779;BME280;11050;52.222;20.916;2023-03-01T10:13:22;101263.97;;;6.49;68.68
21779;BME280;11050;52.222;20.916;2023-03-01T10:15:56;101268.44;;;6.63;67.65
21779;BME280;11050;52.222;20.916;2023-03-01T10:18:30;101252.28;;;6.61;67.74
21779;BME280;11050;52.222;20.916;2023-03-01T10:21:12;101246.81;;;6.68;67.34
21779;BME280;11050;52.222;20.916;2023-03-01T10:23:38;101260.03;;;6.64;68.06
21779;BME280;11050;52.222;20.916;2023-03-01T10:26:44;101248.47;;;6.56;67.61
21779;BME280;11050;52.222;20.916;2023-03-01T10:29:13;101239.47;;;6.68;68.22
21779;BME280;11050;52.222;20.916;2023-03-01T10:31:52;101248.72;;;6.74;68.43
21779;BME280;11050;52.222;20.916;2023-03-01T10:34:32;101249.84;;;6.99;68.45
21779;BME280;11050;52.222;20.916;2023-03-01T10:37:18;101248.16;;;7.05;65.71
21779;BME280;11050;52.222;20.916;2023-03-01T10:40:06;101254.91;;;7.15;66.09
21779;BME280;11050;52.222;20.916;2023-03-01T10:42:48;101250.50;;;7.21;65.91
21779;BME280;11050;52.222;20.916;2023-03-01T10:45:36;101248.63;;;7.34;65.19
21779;BME280;11050;52.222;20.916;2023-03-01T10:50:34;101249.66;;;7.14;65.08
21779;BME280;11050;52.222;20.916;2023-03-01T10:53:03;101246.50;;;7.10;65.67
21779;BME280;11050;52.222;20.916;2023-03-01T10:55:40;101250.09;;;7.24;65.77
21779;BME280;11050;52.222;20.916;2023-03-01T10:58:19;101254.28;;;7.26;65.14
21779;BME280;11050;52.222;20.916;2023-03-01T11:03:40;101242.94;;;7.36;64.85
21779;BME280;11050;52.222;20.916;2023-03-01T11:06:21;101245.66;;;7.62;64.36
21779;BME280;11050;52.222;20.916;2023-03-01T11:08:49;101250.28;;;7.75;63.92
21779;BME280;11050;52.222;20.916;2023-03-01T11:11:22;101255.72;;;7.94;63.79
21779;BME280;11050;52.222;20.916;2023-03-01T11:13:57;101239.25;;;8.14;63.12
21779;BME280;11050;52.222;20.916;2023-03-01T11:16:34;101231.09;;;8.58;60.97
21779;BME280;11050;52.222;20.916;2023-03-01T11:19:21;101232.66;;;8.79;60.35
21779;BME280;11050;52.222;20.916;2023-03-01T11:22:19;101238.09;;;9.16;59.15
21779;BME280;11050;52.222;20.916;2023-03-01T11:24:54;101236.47;;;9.65;57.56
21779;BME280;11050;52.222;20.916;2023-03-01T11:27:38;101222.47;;;9.73;56.80
21779;BME280;11050;52.222;20.916;2023-03-01T11:33:18;101214.22;;;10.15;54.27
21779;BME280;11050;52.222;20.916;2023-03-01T11:36:00;101227.25;;;10.38;53.72
21779;BME280;11050;52.222;20.916;2023-03-01T11:38:29;101214.59;;;10.37;53.99
21779;BME280;11050;52.222;20.916;2023-03-01T11:41:12;101205.22;;;10.44;53.80
21779;BME280;11050;52.222;20.916;2023-03-01T11:44:14;101206.44;;;10.60;53.13
21779;BME280;11050;52.222;20.916;2023-03-01T11:47:26;101213.78;;;10.66;52.94
21779;BME280;11050;52.222;20.916;2023-03-01T11:50:31;101218.47;;;11.07;52.50
21779;BME280;11050;52.222;20.916;2023-03-01T11:53:29;101206.66;;;11.71;50.08
21779;BME280;11050;52.222;20.916;2023-03-01T11:56:31;101217.34;;;12.30;47.75
21779;BME280;11050;52.222;20.916;2023-03-01T11:59:45;101209.16;;;12.47;47.02
21779;BME280;11050;52.222;20.916;2023-03-01T12:08:20;101213.47;;;13.39;44.33
21779;BME280;11050;52.222;20.916;2023-03-01T12:23:57;101207.19;;;15.59;39.31
21779;BME280;11050;52.222;20.916;2023-03-01T12:29:46;101199.19;;;16.56;36.28
21779;BME280;11050;52.222;20.916;2023-03-01T12:32:34;101193.94;;;16.60;36.66
21779;BME280;11050;52.222;20.916;2023-03-01T12:35:54;101188.22;;;17.01;35.97
21779;BME280;11050;52.222;20.916;2023-03-01T12:39:09;101192.44;;;17.29;34.58
21779;BME280;11050;52.222;20.916;2023-03-01T12:44:50;101181.28;;;16.89;34.98
21779;BME280;11050;52.222;20.916;2023-03-01T12:50:38;101178.38;;;16.54;36.75
21779;BME280;11050;52.222;20.916;2023-03-01T12:53:04;101175.97;;;16.72;36.48
21779;BME280;11050;52.222;20.916;2023-03-01T12:55:40;101168.47;;;16.83;35.77
21779;BME280;11050;52.222;20.916;2023-03-01T12:58:41;101169.66;;;17.32;35.02
21779;BME280;11050;52.222;20.916;2023-03-01T13:01:26;101171.28;;;17.93;34.51
21779;BME280;11050;52.222;20.916;2023-03-01T13:04:32;101160.47;;;18.71;32.84
21779;BME280;11050;52.222;20.916;2023-03-01T13:07:44;101161.72;;;19.37;31.42
21779;BME280;11050;52.222;20.916;2023-03-01T13:10:33;101156.81;;;19.19;31.60
21779;BME280;11050;52.222;20.916;2023-03-01T13:13:23;101159.53;;;18.85;31.83
21779;BME280;11050;52.222;20.916;2023-03-01T13:15:50;101153.28;;;18.60;32.33
21779;BME280;11050;52.222;20.916;2023-03-01T13:20:49;101158.28;;;19.12;32.04
21779;BME280;11050;52.222;20.916;2023-03-01T13:26:12;101155.94;;;19.57;31.08
21779;BME280;11050;52.222;20.916;2023-03-01T13:28:56;101157.50;;;19.73;30.66
21779;BME280;11050;52.222;20.916;2023-03-01T13:34:01;101147.91;;;20.08;30.07
21779;BME280;11050;52.222;20.916;2023-03-01T13:39:39;101142.78;;;20.20;30.02
21779;BME280;11050;52.222;20.916;2023-03-01T13:42:32;101140.78;;;20.44;29.52
21779;BME280;11050;52.222;20.916;2023-03-01T13:45:00;101136.81;;;20.50;29.39
21779;BME280;11050;52.222;20.916;2023-03-01T13:47:27;101149.59;;;20.33;29.36
21779;BME280;11050;52.222;20.916;2023-03-01T13:49:59;101128.19;;;20.00;29.53
21779;BME280;11050;52.222;20.916;2023-03-01T13:52:42;101140.84;;;19.30;30.66
21779;BME280;11050;52.222;20.916;2023-03-01T13:57:43;101139.69;;;19.93;30.60
21779;BME280;11050;52.222;20.916;2023-03-01T14:00:35;101138.09;;;19.25;30.68
21779;BME280;11050;52.222;20.916;2023-03-01T14:03:24;101123.09;;;18.18;32.97
21779;BME280;11050;52.222;20.916;2023-03-01T14:06:08;101125.63;;;18.15;33.83
21779;BME280;11050;52.222;20.916;2023-03-01T14:08:36;101120.97;;;17.90;33.61
21779;BME280;11050;52.222;20.916;2023-03-01T14:20:23;101119.69;;;20.75;29.49
21779;BME280;11050;52.222;20.916;2023-03-01T14:22:55;101119.63;;;21.50;27.87
21779;BME280;11050;52.222;20.916;2023-03-01T14:25:37;101119.97;;;21.62;27.39
21779;BME280;11050;52.222;20.916;2023-03-01T14:28:26;101122.31;;;21.41;28.11
21779;BME280;11050;52.222;20.916;2023-03-01T14:30:56;101120.25;;;21.47;27.92